Time;durP1;ratioP1;P1;durP2;ratioP2;P2;SDS_P1;SDS_P2;PMS_P1;PMS_P2;Temp;Humidity;BMP_temperature;BMP_pressure;BME280_temperature;BME280_humidity;BME280_pressure;Samples;Min_cycle;Max_cycle;Signal;HPM_P1;HPM_P2
2023/08/31 00:14:22;;;;;;;15.40;8.40;;;;;;;20.37;100.00;99303.91;668320;1261;139387;-74
2023/08/31 00:29:25;;;;;;;10.00;6.70;;;;;;;20.58;100.00;99303.27;668310;1262;139811;-74
2023/08/31 00:44:29;;;;;;;8.10;5.50;;;;;;;20.77;100.00;99308.66;667761;1260;139270;-74
2023/08/31 00:59:32;;;;;;;2.80;1.50;;;;;;;20.76;100.00;99304.02;667346;1274;139258;-77
2023/08/31 01:14:45;;;;;;;1.30;1.10;;;;;;;20.54;100.00;99307.68;667648;1264;139113;-75
2023/08/31 01:29:49;;;;;;;2.10;1.30;;;;;;;20.36;100.00;99317.91;674905;1264;139277;-75
2023/08/31 01:44:56;;;;;;;1.80;1.30;;;;;;;20.26;100.00;99324.70;667561;1268;139659;-74
2023/08/31 01:59:59;;;;;;;1.00;1.00;;;;;;;20.03;100.00;99328.55;667404;1274;139633;-74
2023/08/31 02:15:06;;;;;;;1.80;1.60;;;;;;;19.42;100.00;99337.36;668111;1263;139375;-73
2023/08/31 02:30:10;;;;;;;1.50;0.80;;;;;;;19.01;100.00;99354.59;667959;1264;139499;-74
2023/08/31 02:45:13;;;;;;;0.70;0.50;;;;;;;19.02;100.00;99358.88;668084;1263;140131;-74
2023/08/31 03:00:21;;;;;;;2.50;0.40;;;;;;;18.63;100.00;99367.58;668085;1260;139192;-75
2023/08/31 03:15:24;;;;;;;2.00;0.40;;;;;;;18.13;100.00;99376.05;668191;1263;139137;-74
2023/08/31 03:30:28;;;;;;;0.40;0.20;;;;;;;18.27;100.00;99385.41;668123;1259;139904;-74
2023/08/31 03:45:32;;;;;;;0.40;0.40;;;;;;;18.24;100.00;99389.38;667734;1260;141002;-75
2023/08/31 04:00:37;;;;;;;0.70;0.70;;;;;;;18.16;100.00;99406.98;667431;1264;139457;-74
2023/08/31 04:15:41;;;;;;;1.70;1.40;;;;;;;18.07;100.00;99417.37;667645;1260;140127;-75
2023/08/31 04:30:45;;;;;;;5.00;2.40;;;;;;;18.15;100.00;99423.20;667609;1263;139551;-74
2023/08/31 04:45:48;;;;;;;4.50;3.30;;;;;;;18.20;100.00;99430.80;668103;1262;260125;-76
2023/08/31 05:00:52;;;;;;;7.20;5.30;;;;;;;17.98;100.00;99444.60;668184;1259;140011;-74
2023/08/31 05:15:57;;;;;;;9.00;5.90;;;;;;;18.04;100.00;99461.76;668273;1263;139210;-75
2023/08/31 05:31:03;;;;;;;9.30;5.50;;;;;;;18.48;100.00;99468.01;668392;1261;139685;-75
2023/08/31 05:46:08;;;;;;;9.40;6.00;;;;;;;18.70;100.00;99478.45;668163;1262;139023;-74
2023/08/31 06:01:11;;;;;;;9.80;6.30;;;;;;;18.76;100.00;99490.63;667598;1264;139646;-74
2023/08/31 06:16:15;;;;;;;10.60;6.10;;;;;;;18.87;100.00;99501.81;668043;1262;139178;-74
2023/08/31 06:31:19;;;;;;;9.40;6.00;;;;;;;19.03;100.00;99511.51;668249;1263;139502;-74
2023/08/31 06:46:22;;;;;;;27.30;22.00;;;;;;;19.12;100.00;99513.14;669022;1264;139135;-76
2023/08/31 07:01:28;;;;;;;18.60;12.50;;;;;;;19.29;100.00;99518.66;674141;1262;139696;-75
2023/08/31 07:16:31;;;;;;;14.50;10.30;;;;;;;19.60;100.00;99523.95;668795;1259;140467;-74
2023/08/31 07:31:36;;;;;;;7.00;4.80;;;;;;;20.65;100.00;99523.67;668192;1262;140828;-74
2023/08/31 07:46:39;;;;;;;7.30;3.60;;;;;;;22.38;100.00;99528.02;668175;1262;139077;-75
2023/08/31 08:01:43;;;;;;;5.30;3.70;;;;;;;22.61;98.98;99557.88;668465;1262;140203;-75
2023/08/31 08:16:46;;;;;;;8.60;3.20;;;;;;;22.70;98.19;99569.73;668402;1263;138995;-75
2023/08/31 08:31:50;;;;;;;7.40;3.60;;;;;;;23.32;93.73;99565.84;668381;1262;139023;-75
2023/08/31 08:46:54;;;;;;;9.00;2.40;;;;;;;23.49;88.99;99572.88;672513;1263;138793;-75
2023/08/31 09:01:58;;;;;;;3.20;2.10;;;;;;;24.63;84.51;99576.61;670934;1264;138935;-77
2023/08/31 09:17:01;;;;;;;5.80;2.80;;;;;;;24.05;82.27;99590.94;669152;1262;139103;-78
2023/08/31 09:32:05;;;;;;;4.20;2.20;;;;;;;24.16;79.72;99593.42;667873;1262;139467;-75
2023/08/31 09:47:09;;;;;;;4.80;2.50;;;;;;;24.50;79.68;99602.10;669432;1262;139069;-75
2023/08/31 10:02:16;;;;;;;5.00;2.50;;;;;;;24.06;80.95;99618.20;669320;1260;139063;-74
2023/08/31 10:17:21;;;;;;;3.70;2.60;;;;;;;23.53;83.30;99622.98;670364;1264;139763;-73
2023/08/31 10:32:27;;;;;;;5.10;2.50;;;;;;;24.64;80.75;99622.75;669320;1262;139927;-75
2023/08/31 10:47:41;;;;;;;3.80;2.50;;;;;;;24.74;75.53;99623.14;668993;1264;143666;-75
2023/08/31 11:02:48;;;;;;;9.00;2.50;;;;;;;24.77;73.51;99615.80;668945;1260;139006;-75
2023/08/31 11:17:54;;;;;;;5.60;3.10;;;;;;;25.35;72.04;99594.20;668479;1262;139766;-75
2023/08/31 11:33:14;;;;;;;4.30;2.90;;;;;;;24.92;72.30;99579.09;668000;1262;139196;-75
2023/08/31 11:48:18;;;;;;;4.90;3.00;;;;;;;25.40;69.90;99595.02;667733;1266;139161;-75
2023/08/31 12:03:24;;;;;;;6.50;3.10;;;;;;;25.63;69.72;99576.58;668174;1265;139140;-76
2023/08/31 12:18:46;;;;;;;4.50;3.40;;;;;;;24.77;71.10;99570.91;675031;1262;138836;-74
2023/08/31 12:33:50;;;;;;;8.60;5.60;;;;;;;24.08;76.61;99578.95;668208;1275;139921;-75
2023/08/31 12:48:53;;;;;;;8.60;3.70;;;;;;;24.15;77.93;99606.77;668272;1266;139493;-74
2023/08/31 13:03:57;;;;;;;13.20;3.70;;;;;;;24.52;74.99;99598.38;667886;1262;139609;-73
2023/08/31 13:19:00;;;;;;;7.40;4.00;;;;;;;22.80;74.94;99644.19;668197;1262;139734;-73
2023/08/31 13:34:05;;;;;;;6.00;5.00;;;;;;;21.54;83.52;99657.23;669119;1262;139101;-72
2023/08/31 13:49:09;;;;;;;6.30;5.50;;;;;;;22.35;85.66;99652.52;669438;1263;139359;-74
2023/08/31 14:04:13;;;;;;;5.20;4.20;;;;;;;22.56;87.23;99653.11;669840;1262;139424;-74
2023/08/31 14:19:16;;;;;;;9.00;7.30;;;;;;;22.58;84.94;99677.75;669460;1263;139062;-75
2023/08/31 14:34:19;;;;;;;78.00;54.40;;;;;;;22.80;84.07;99700.30;669669;1276;138683;-73
2023/08/31 14:49:25;;;;;;;10.80;6.70;;;;;;;23.25;82.07;99725.11;668293;1277;139983;-73
2023/08/31 15:04:28;;;;;;;9.10;5.20;;;;;;;22.47;82.50;99727.05;668057;1263;140077;-74
2023/08/31 15:19:32;;;;;;;40.50;18.30;;;;;;;21.82;84.30;99725.20;668087;1260;139189;-73
2023/08/31 15:34:35;;;;;;;11.90;5.90;;;;;;;22.01;84.38;99725.95;668179;1263;140371;-74
2023/08/31 15:49:40;;;;;;;7.30;5.80;;;;;;;22.36;82.04;99734.79;667886;1263;140042;-74
2023/08/31 16:04:47;;;;;;;4.30;3.90;;;;;;;22.36;80.57;99745.52;668158;1273;139863;-75
2023/08/31 16:19:50;;;;;;;3.70;2.50;;;;;;;22.69;77.03;99747.24;667765;1264;139039;-74
2023/08/31 16:34:53;;;;;;;5.90;3.30;;;;;;;21.82;76.31;99752.89;682276;1263;139895;-74
2023/08/31 16:49:59;;;;;;;5.40;3.50;;;;;;;21.11;78.57;99764.67;681679;1264;139340;-75
2023/08/31 17:05:03;;;;;;;5.30;3.50;;;;;;;20.97;79.19;99765.11;682025;1265;139360;-76
2023/08/31 17:20:09;;;;;;;4.70;3.50;;;;;;;20.96;80.32;99772.55;682278;1263;139321;-76
2023/08/31 17:45:29;;;;;;;6.20;3.70;;;;;;;20.26;81.28;99785.42;658652;1292;544775;-74
2023/08/31 18:00:32;;;;;;;4.10;3.10;;;;;;;19.62;75.71;99810.84;662937;1287;138348;-75
2023/08/31 18:15:37;;;;;;;3.50;2.10;;;;;;;19.03;75.21;99842.70;665877;1268;138668;-75
2023/08/31 18:31:02;;;;;;;4.70;2.20;;;;;;;18.68;76.47;99863.31;665991;1278;138451;-75
2023/08/31 18:46:07;;;;;;;3.70;2.60;;;;;;;18.34;77.59;99869.00;668725;1276;138856;-75
2023/08/31 19:01:11;;;;;;;8.20;3.30;;;;;;;18.13;78.03;99873.33;667523;1268;139490;-75
2023/08/31 19:16:16;;;;;;;4.50;2.40;;;;;;;17.89;79.17;99867.77;667293;1267;138042;-74
2023/08/31 19:31:20;;;;;;;6.10;3.00;;;;;;;17.50;80.83;99869.73;666962;1267;138854;-74
2023/08/31 19:46:24;;;;;;;10.40;3.00;;;;;;;17.27;82.05;99884.66;667479;1267;138893;-75
2023/08/31 20:01:30;;;;;;;4.60;2.90;;;;;;;17.08;83.03;99891.85;668221;1264;139257;-76
2023/08/31 20:16:33;;;;;;;5.60;3.60;;;;;;;16.95;84.01;99905.54;668864;1264;138476;-74
2023/08/31 20:31:37;;;;;;;6.00;3.70;;;;;;;16.76;85.15;99914.59;668475;1273;139286;-74
2023/08/31 20:46:40;;;;;;;12.30;4.70;;;;;;;16.53;85.85;99922.84;667605;1264;139322;-74
2023/08/31 21:01:44;;;;;;;9.40;4.00;;;;;;;16.40;86.68;99928.05;668879;1260;139499;-74
2023/08/31 21:16:47;;;;;;;11.50;4.50;;;;;;;16.37;87.41;99935.95;668221;1257;138954;-74
2023/08/31 21:31:51;;;;;;;9.40;5.50;;;;;;;16.42;87.91;99944.03;667930;1262;138809;-77
2023/08/31 21:46:54;;;;;;;9.60;5.80;;;;;;;16.35;87.90;99951.98;668402;1258;138404;-75
2023/08/31 22:01:58;;;;;;;9.20;5.80;;;;;;;16.05;90.07;99956.10;668230;1260;138892;-75
2023/08/31 22:17:02;;;;;;;13.20;7.80;;;;;;;15.95;91.34;99955.17;668457;1268;139172;-76
2023/08/31 22:32:05;;;;;;;15.50;9.50;;;;;;;15.85;93.97;99948.74;668086;1262;140317;-75
2023/08/31 22:47:09;;;;;;;16.10;9.90;;;;;;;15.80;95.52;99948.58;668456;1264;140173;-75
2023/08/31 23:02:12;;;;;;;16.80;10.80;;;;;;;15.91;95.55;99940.67;675521;1263;139501;-76
2023/08/31 23:17:16;;;;;;;16.80;10.80;;;;;;;15.83;95.40;99937.90;668632;1263;140130;-75
2023/08/31 23:32:19;;;;;;;15.10;10.40;;;;;;;15.88;96.25;99950.03;668463;1262;138956;-75
2023/08/31 23:47:22;;;;;;;19.20;10.70;;;;;;;15.97;96.04;99959.31;668275;1262;138875;-76
